createdAt,value
2017-06-27T00:00:32.196Z,12.27
2017-06-27T00:02:59.718Z,12.57
2017-06-27T00:05:27.246Z,12.63
2017-06-27T00:07:54.770Z,12.87
2017-06-27T00:10:22.292Z,11.57
2017-06-27T00:12:49.809Z,13.27
2017-06-27T00:15:17.324Z,11.90
2017-06-27T00:17:44.858Z,12.87
2017-06-27T00:20:12.408Z,13.10
2017-06-27T00:22:40.191Z,13.50
2017-06-27T00:25:07.717Z,12.83
2017-06-27T00:27:35.224Z,13.17
2017-06-27T00:30:02.781Z,12.70
2017-06-27T00:32:30.298Z,12.37
2017-06-27T00:34:57.820Z,12.53
2017-06-27T00:37:25.336Z,11.90
2017-06-27T00:39:52.856Z,11.80
2017-06-27T00:42:20.379Z,12.23
2017-06-27T00:44:48.373Z,12.40
2017-06-27T00:47:16.652Z,13.30
2017-06-27T00:49:44.928Z,12.90
2017-06-27T00:52:13.227Z,13.23
2017-06-27T00:54:40.737Z,13.70
2017-06-27T00:57:08.277Z,14.10
2017-06-27T00:59:35.833Z,14.13
2017-06-27T01:02:03.350Z,14.00
2017-06-27T01:04:30.888Z,12.80
2017-06-27T01:06:58.427Z,13.13
2017-06-27T01:09:25.969Z,13.30
2017-06-27T01:11:53.476Z,13.50
2017-06-27T01:14:21.775Z,13.23
2017-06-27T01:16:49.293Z,12.53
2017-06-27T01:19:16.830Z,12.67
2017-06-27T01:21:44.350Z,13.50
2017-06-27T01:24:11.873Z,12.90
2017-06-27T01:26:39.789Z,14.40
2017-06-27T01:29:07.306Z,14.43
2017-06-27T01:31:35.569Z,13.33
2017-06-27T01:34:03.104Z,12.90
2017-06-27T01:36:30.623Z,13.53
2017-06-27T01:38:58.150Z,13.47
2017-06-27T01:41:25.968Z,14.00
2017-06-27T01:43:53.493Z,14.80
2017-06-27T01:46:21.759Z,13.47
2017-06-27T01:48:50.050Z,13.90
2017-06-27T01:51:17.581Z,13.77
2017-06-27T01:53:45.103Z,13.30
2017-06-27T01:56:13.031Z,16.30
2017-06-27T01:58:41.310Z,15.13
2017-06-27T02:01:08.829Z,13.67
2017-06-27T02:03:36.359Z,13.60
2017-06-27T02:06:03.870Z,14.03
2017-06-27T02:08:32.151Z,12.90
2017-06-27T02:11:00.425Z,15.80
2017-06-27T02:13:27.941Z,14.67
2017-06-27T02:15:55.453Z,13.87
2017-06-27T02:18:22.974Z,15.07
2017-06-27T02:20:50.883Z,13.90
2017-06-27T02:23:18.392Z,13.80
2017-06-27T02:25:45.915Z,13.10
2017-06-27T02:28:13.461Z,12.57
2017-06-27T02:30:40.996Z,13.60
2017-06-27T02:33:08.825Z,13.90
2017-06-27T02:35:36.352Z,14.27
2017-06-27T02:38:03.862Z,14.27
2017-06-27T02:40:31.400Z,15.47
2017-06-27T02:42:58.913Z,15.17
2017-06-27T02:45:26.439Z,13.60
2017-06-27T02:47:53.958Z,14.00
2017-06-27T02:50:21.497Z,15.60
2017-06-27T02:52:49.024Z,15.70
2017-06-27T02:55:16.532Z,15.80
2017-06-27T02:57:44.047Z,15.00
2017-06-27T03:00:11.561Z,15.10
2017-06-27T03:02:39.089Z,15.20
2017-06-27T03:05:06.603Z,14.33
2017-06-27T03:07:34.119Z,14.43
2017-06-27T03:10:01.640Z,15.20
2017-06-27T03:12:29.901Z,14.33
2017-06-27T03:14:57.422Z,14.67
2017-06-27T03:17:24.960Z,14.70
2017-06-27T03:19:52.485Z,15.67
2017-06-27T03:22:19.998Z,15.33
2017-06-27T03:24:47.773Z,15.23
2017-06-27T03:27:15.273Z,14.50
2017-06-27T03:29:43.555Z,14.20
2017-06-27T03:32:11.074Z,14.40
2017-06-27T03:34:38.580Z,14.53
2017-06-27T03:37:06.109Z,15.30
2017-06-27T03:39:33.610Z,14.63
2017-06-27T03:42:01.465Z,14.10
2017-06-27T03:44:28.992Z,15.30
2017-06-27T03:46:56.509Z,14.30
2017-06-27T03:49:24.051Z,14.40
2017-06-27T03:51:51.562Z,14.37
2017-06-27T03:54:19.084Z,15.87
2017-06-27T03:56:46.608Z,15.87
2017-06-27T03:59:14.895Z,14.67
2017-06-27T04:01:43.192Z,14.20
2017-06-27T04:04:11.055Z,15.00
2017-06-27T04:06:38.568Z,14.40
2017-06-27T04:09:06.080Z,15.30
2017-06-27T04:11:33.614Z,14.20
2017-06-27T04:14:01.134Z,14.80
2017-06-27T04:16:28.654Z,14.70
2017-06-27T04:18:56.178Z,14.90
2017-06-27T04:21:24.466Z,14.63
2017-06-27T04:23:52.003Z,15.13
2017-06-27T04:26:19.528Z,15.33
2017-06-27T04:28:47.108Z,14.77
2017-06-27T04:31:14.762Z,16.10
2017-06-27T04:33:42.567Z,15.40
2017-06-27T04:36:10.104Z,13.83
2017-06-27T04:38:37.628Z,15.13
2017-06-27T04:41:05.557Z,15.20
2017-06-27T04:43:33.068Z,13.97
2017-06-27T04:46:00.580Z,13.60
2017-06-27T04:48:28.096Z,14.20
2017-06-27T04:50:55.618Z,13.47
2017-06-27T04:53:23.149Z,12.90
2017-06-27T04:55:50.684Z,13.27
2017-06-27T04:58:18.213Z,13.57
2017-06-27T05:00:45.752Z,13.23
2017-06-27T05:03:13.279Z,14.00
2017-06-27T05:05:41.553Z,13.60
2017-06-27T05:08:09.846Z,13.93
2017-06-27T05:10:37.361Z,14.20
2017-06-27T05:13:04.901Z,14.10
2017-06-27T05:15:32.431Z,14.10
2017-06-27T05:17:59.951Z,14.77
2017-06-27T05:20:27.784Z,14.63
2017-06-27T05:22:55.304Z,14.47
2017-06-27T05:25:22.825Z,14.33
2017-06-27T05:27:50.387Z,13.10
2017-06-27T05:30:17.907Z,13.90
2017-06-27T05:32:45.443Z,14.13
2017-06-27T05:35:13.009Z,13.10
2017-06-27T05:37:40.531Z,13.17
2017-06-27T05:40:08.840Z,13.60
2017-06-27T05:42:36.366Z,13.47
2017-06-27T05:45:03.891Z,13.73
2017-06-27T05:47:31.418Z,12.57
2017-06-27T05:49:58.963Z,12.30
2017-06-27T05:52:26.482Z,13.60
2017-06-27T05:54:53.984Z,14.57
2017-06-27T05:57:21.510Z,14.40
2017-06-27T05:59:49.076Z,13.30
2017-06-27T06:02:17.384Z,13.90
2017-06-27T06:04:44.907Z,12.53
2017-06-27T06:07:12.447Z,15.70
2017-06-27T06:09:39.958Z,13.60
2017-06-27T06:12:07.486Z,13.20
2017-06-27T06:14:35.011Z,14.30
2017-06-27T06:17:02.523Z,12.80
2017-06-27T06:19:30.053Z,13.43
2017-06-27T06:21:57.582Z,12.33
2017-06-27T06:24:25.503Z,13.00
2017-06-27T06:26:53.040Z,11.50
2017-06-27T06:29:20.541Z,13.07
2017-06-27T06:31:48.058Z,12.30
2017-06-27T06:34:16.352Z,12.03
2017-06-27T06:36:44.653Z,11.70
2017-06-27T06:39:12.167Z,12.10
2017-06-27T06:41:40.175Z,12.67
2017-06-27T06:44:07.708Z,13.53
2017-06-27T06:46:35.219Z,11.93
2017-06-27T06:49:02.750Z,12.23
2017-06-27T06:51:30.263Z,12.90
2017-06-27T06:53:57.781Z,12.57
2017-06-27T06:56:25.724Z,12.40
2017-06-27T06:58:53.262Z,11.57
2017-06-27T07:01:20.795Z,12.70
2017-06-27T07:03:48.329Z,13.97
2017-06-27T07:06:16.158Z,12.90
2017-06-27T07:08:44.473Z,12.40
2017-06-27T07:11:11.992Z,11.87
2017-06-27T07:13:40.055Z,12.77
2017-06-27T07:16:07.583Z,13.50
2017-06-27T07:18:35.117Z,13.13
2017-06-27T07:21:02.648Z,13.57
2017-06-27T07:23:30.576Z,13.17
2017-06-27T07:25:58.963Z,13.33
2017-06-27T07:28:29.028Z,13.33
2017-06-27T07:30:56.550Z,13.33
2017-06-27T07:33:24.065Z,13.50
2017-06-27T07:35:51.595Z,12.80
2017-06-27T07:38:19.127Z,13.70
2017-06-27T07:40:46.652Z,13.90
2017-06-27T07:43:14.209Z,15.07
2017-06-27T07:45:41.720Z,14.77
2017-06-27T07:48:09.259Z,14.67
2017-06-27T07:50:36.785Z,13.93
2017-06-27T07:53:04.326Z,14.53
2017-06-27T07:55:31.860Z,14.13
2017-06-27T07:57:59.382Z,13.67
2017-06-27T08:00:26.922Z,14.90
2017-06-27T08:02:54.461Z,13.63
2017-06-27T08:05:21.991Z,13.10
2017-06-27T08:07:49.522Z,12.87
2017-06-27T08:10:17.044Z,13.90
2017-06-27T08:12:44.538Z,13.27
2017-06-27T08:15:12.064Z,14.50
2017-06-27T08:17:39.585Z,13.40
2017-06-27T08:20:07.116Z,14.10
2017-06-27T08:22:34.632Z,13.27
2017-06-27T08:25:03.000Z,13.07
2017-06-27T08:27:30.505Z,12.23
2017-06-27T08:29:58.330Z,13.00
2017-06-27T08:32:25.835Z,13.60
2017-06-27T08:34:53.367Z,13.97
2017-06-27T08:37:21.292Z,12.97
2017-06-27T08:39:48.833Z,11.77
2017-06-27T08:42:16.363Z,11.50
2017-06-27T08:44:43.912Z,12.40
2017-06-27T08:47:11.426Z,10.57
2017-06-27T08:49:38.950Z,10.90
2017-06-27T08:52:06.503Z,11.30
2017-06-27T08:54:34.031Z,10.97
2017-06-27T08:57:01.572Z,10.70
2017-06-27T08:59:29.095Z,10.40
2017-06-27T09:01:57.093Z,11.13
2017-06-27T09:04:24.616Z,10.80
2017-06-27T09:06:52.162Z,10.17
2017-06-27T09:09:19.703Z,9.97
2017-06-27T09:11:47.242Z,11.53
2017-06-27T09:14:14.773Z,14.43
2017-06-27T09:16:43.058Z,14.47
2017-06-27T09:19:10.602Z,14.57
2017-06-27T09:21:38.120Z,15.20
2017-06-27T09:24:05.645Z,16.10
2017-06-27T09:26:33.161Z,15.30
2017-06-27T09:29:00.671Z,15.60
2017-06-27T09:31:28.208Z,15.13
2017-06-27T09:33:55.726Z,15.93
2017-06-27T09:36:23.538Z,16.57
2017-06-27T09:38:51.080Z,14.80
2017-06-27T09:41:18.590Z,16.20
2017-06-27T09:43:46.121Z,14.90
2017-06-27T09:46:13.629Z,12.27
2017-06-27T09:48:41.655Z,12.20
2017-06-27T09:51:09.197Z,11.07
2017-06-27T09:53:36.717Z,11.30
2017-06-27T09:56:04.276Z,11.60
2017-06-27T09:58:31.818Z,10.97
2017-06-27T10:00:59.375Z,13.10
2017-06-27T10:03:26.911Z,11.60
2017-06-27T10:05:54.447Z,13.70
2017-06-27T10:08:22.744Z,13.67
2017-06-27T10:10:50.278Z,13.20
2017-06-27T10:13:17.822Z,13.40
2017-06-27T10:15:47.541Z,14.37
2017-06-27T10:18:16.262Z,15.80
2017-06-27T10:20:48.376Z,15.17
2017-06-27T10:23:16.267Z,16.10
2017-06-27T10:25:44.557Z,18.90
2017-06-27T10:28:12.088Z,16.77
2017-06-27T10:30:39.670Z,18.33
2017-06-27T10:33:07.195Z,17.57
2017-06-27T10:35:34.719Z,17.03
2017-06-27T10:38:02.757Z,17.97
2017-06-27T10:40:30.292Z,16.97
2017-06-27T10:42:58.913Z,15.90
2017-06-27T10:45:26.562Z,15.67
2017-06-27T10:47:54.699Z,14.90
2017-06-27T10:50:22.609Z,14.93
2017-06-27T10:52:50.167Z,14.60
2017-06-27T10:55:17.714Z,13.07
2017-06-27T10:57:45.382Z,13.87
2017-06-27T11:00:13.013Z,14.60
2017-06-27T11:02:40.627Z,14.33
2017-06-27T11:05:08.144Z,14.00
2017-06-27T11:07:35.675Z,14.17
2017-06-27T11:10:03.183Z,15.33
2017-06-27T11:12:31.056Z,14.10
2017-06-27T11:14:58.570Z,14.10
2017-06-27T11:17:26.099Z,14.03
2017-06-27T11:19:53.670Z,15.57
2017-06-27T11:22:21.181Z,13.27
2017-06-27T11:24:48.711Z,13.00
2017-06-27T11:27:17.003Z,12.80
2017-06-27T11:29:45.309Z,12.60
2017-06-27T11:32:12.827Z,14.90
2017-06-27T11:34:40.354Z,16.00
2017-06-27T11:37:07.876Z,13.83
2017-06-27T11:39:35.397Z,13.63
2017-06-27T11:42:03.396Z,12.60
2017-06-27T11:44:30.909Z,13.53
2017-06-27T11:46:58.419Z,11.67
2017-06-27T11:49:26.204Z,12.73
2017-06-27T11:51:53.725Z,12.57
2017-06-27T11:54:21.251Z,12.70
2017-06-27T11:56:49.073Z,11.80
2017-06-27T11:59:16.602Z,9.33
2017-06-27T12:01:56.171Z,9.43
2017-06-27T12:04:27.196Z,8.07
2017-06-27T12:06:55.472Z,7.80
2017-06-27T12:09:29.738Z,7.90
2017-06-27T12:11:57.253Z,9.13
2017-06-27T12:14:24.792Z,9.13
2017-06-27T12:16:53.068Z,8.17
2017-06-27T12:19:21.356Z,8.00
2017-06-27T12:21:48.867Z,7.33
2017-06-27T12:24:16.373Z,7.03
2017-06-27T12:26:43.896Z,7.20
2017-06-27T12:29:11.439Z,7.57
2017-06-27T12:31:38.977Z,7.47
2017-06-27T12:34:06.516Z,7.03
2017-06-27T12:36:34.050Z,7.90
2017-06-27T12:39:01.549Z,8.30
2017-06-27T12:41:29.519Z,8.20
2017-06-27T12:43:57.018Z,7.47
2017-06-27T12:46:24.517Z,9.03
2017-06-27T12:48:52.072Z,8.57
2017-06-27T12:51:19.623Z,8.80
2017-06-27T12:53:47.149Z,8.07
2017-06-27T12:56:14.667Z,8.50
2017-06-27T12:58:42.479Z,8.20
2017-06-27T13:01:10.015Z,9.70
2017-06-27T13:03:37.518Z,10.27
2017-06-27T13:06:05.061Z,10.37
2017-06-27T13:08:32.571Z,8.80
2017-06-27T13:11:00.094Z,9.57
2017-06-27T13:13:27.644Z,9.50
2017-06-27T13:15:55.947Z,8.20
2017-06-27T13:18:23.451Z,9.80
2017-06-27T13:20:50.980Z,9.00
2017-06-27T13:23:18.591Z,10.03
2017-06-27T13:25:46.123Z,9.77
2017-06-27T13:28:13.645Z,8.90
2017-06-27T13:30:41.528Z,9.37
2017-06-27T13:33:09.046Z,9.90
2017-06-27T13:35:36.690Z,11.10
2017-06-27T13:38:04.220Z,11.63
2017-06-27T13:40:31.757Z,11.53
2017-06-27T13:42:59.313Z,10.70
2017-06-27T13:45:26.838Z,9.07
2017-06-27T13:47:55.140Z,11.13
2017-06-27T13:50:22.681Z,12.07
2017-06-27T13:52:50.201Z,9.77
2017-06-27T13:55:17.727Z,10.57
2017-06-27T13:57:45.250Z,9.53
2017-06-27T14:00:12.771Z,10.13
2017-06-27T14:02:40.299Z,10.43
2017-06-27T14:05:07.832Z,9.17
2017-06-27T14:07:35.365Z,9.13
2017-06-27T14:10:02.869Z,9.30
2017-06-27T14:12:30.662Z,9.43
2017-06-27T14:14:58.183Z,8.13
2017-06-27T14:17:25.714Z,9.50
2017-06-27T14:19:53.252Z,9.90
2017-06-27T14:22:20.769Z,7.70
2017-06-27T14:24:48.291Z,8.50
2017-06-27T14:27:15.832Z,9.07
2017-06-27T14:29:43.342Z,8.17
2017-06-27T14:32:10.887Z,8.47
2017-06-27T14:34:38.406Z,9.80
2017-06-27T14:37:05.909Z,9.07
2017-06-27T14:39:34.203Z,9.50
2017-06-27T14:42:01.983Z,8.70
2017-06-27T14:44:29.508Z,8.60
2017-06-27T14:46:57.815Z,8.30
2017-06-27T14:49:25.325Z,7.60
2017-06-27T14:51:53.135Z,7.67
2017-06-27T14:54:20.679Z,7.03
2017-06-27T14:56:48.211Z,6.70
2017-06-27T14:59:16.022Z,6.70
2017-06-27T15:01:43.527Z,6.27
2017-06-27T15:04:11.041Z,6.60
2017-06-27T15:06:38.567Z,7.30
2017-06-27T15:09:06.096Z,7.83
2017-06-27T15:11:33.611Z,8.70
2017-06-27T15:14:01.479Z,8.13
2017-06-27T15:16:28.999Z,10.10
2017-06-27T15:18:56.520Z,9.60
2017-06-27T15:21:24.049Z,8.93
2017-06-27T15:23:51.564Z,9.87
2017-06-27T15:26:19.103Z,10.30
2017-06-27T15:28:46.639Z,10.40
2017-06-27T15:31:14.158Z,6.80
2017-06-27T15:33:41.687Z,6.73
2017-06-27T15:36:09.221Z,7.37
2017-06-27T15:38:36.752Z,8.10
2017-06-27T15:41:04.263Z,6.90
2017-06-27T15:43:31.800Z,8.40
2017-06-27T15:45:59.388Z,7.93
2017-06-27T15:48:26.899Z,7.40
2017-06-27T15:50:54.444Z,8.13
2017-06-27T15:53:21.969Z,7.70
2017-06-27T15:55:50.267Z,9.60
2017-06-27T15:58:18.543Z,8.17
2017-06-27T16:00:46.087Z,8.80
2017-06-27T16:03:13.693Z,8.17
2017-06-27T16:05:41.581Z,9.00
2017-06-27T16:08:09.105Z,9.40
2017-06-27T16:10:36.651Z,9.47
2017-06-27T16:13:04.204Z,9.77
2017-06-27T16:15:31.727Z,11.10
2017-06-27T16:17:59.254Z,11.87
2017-06-27T16:20:26.788Z,12.07
2017-06-27T16:22:54.327Z,12.97
2017-06-27T16:25:22.712Z,12.47
2017-06-27T16:27:50.331Z,13.93
2017-06-27T16:30:17.873Z,12.63
2017-06-27T16:32:45.472Z,13.80
2017-06-27T16:35:13.025Z,12.77
2017-06-27T16:37:40.585Z,12.83
2017-06-27T16:40:08.136Z,12.20
2017-06-27T16:42:35.689Z,10.93
2017-06-27T16:45:03.206Z,11.83
2017-06-27T16:47:30.740Z,10.57
2017-06-27T16:49:59.029Z,9.73
2017-06-27T16:52:27.760Z,9.80
2017-06-27T16:54:55.273Z,10.40
2017-06-27T16:57:22.799Z,9.80
2017-06-27T16:59:50.356Z,9.50
2017-06-27T17:02:17.933Z,9.87
2017-06-27T17:04:46.252Z,10.10
2017-06-27T17:07:13.818Z,9.80
2017-06-27T17:09:41.794Z,9.97
2017-06-27T17:12:10.104Z,10.30
2017-06-27T17:14:37.624Z,9.50
2017-06-27T17:17:05.436Z,10.23
2017-06-27T17:19:32.976Z,9.70
2017-06-27T17:22:00.506Z,8.20
2017-06-27T17:24:28.305Z,8.73
2017-06-27T17:26:55.827Z,8.17
2017-06-27T17:29:23.356Z,7.63
2017-06-27T17:31:50.883Z,7.83
2017-06-27T17:34:18.398Z,7.00
2017-06-27T17:36:46.273Z,6.60
2017-06-27T17:39:13.808Z,6.83
2017-06-27T17:41:41.344Z,7.60
2017-06-27T17:44:10.098Z,6.87
2017-06-27T17:46:37.634Z,7.43
2017-06-27T17:49:05.142Z,8.13
2017-06-27T17:51:32.689Z,7.67
2017-06-27T17:54:00.219Z,8.20
2017-06-27T17:56:27.754Z,8.27
2017-06-27T17:58:55.291Z,9.93
2017-06-27T18:01:22.866Z,9.27
2017-06-27T18:03:50.393Z,8.93
2017-06-27T18:06:18.014Z,9.20
2017-06-27T18:08:45.617Z,9.20
2017-06-27T18:11:13.157Z,8.90
2017-06-27T18:13:40.704Z,8.47
2017-06-27T18:16:08.221Z,9.57
2017-06-27T18:18:36.037Z,9.37
2017-06-27T18:21:03.577Z,8.80
2017-06-27T18:23:31.130Z,9.47
2017-06-27T18:25:58.672Z,10.70
2017-06-27T18:28:26.180Z,9.50
2017-06-27T18:30:58.651Z,8.83
2017-06-27T18:33:26.191Z,9.17
2017-06-27T18:35:53.737Z,8.60
2017-06-27T18:38:21.258Z,8.90
2017-06-27T18:40:49.576Z,9.43
2017-06-27T18:43:17.430Z,8.83
2017-06-27T18:45:44.942Z,9.33
2017-06-27T18:48:12.460Z,9.07
2017-06-27T18:50:40.004Z,9.23
2017-06-27T18:53:07.581Z,8.87
2017-06-27T18:55:35.108Z,9.93
2017-06-27T18:58:02.650Z,11.43
2017-06-27T19:00:30.199Z,9.40
2017-06-27T19:02:57.720Z,9.20
2017-06-27T19:05:25.556Z,9.50
2017-06-27T19:07:53.096Z,10.37
2017-06-27T19:10:20.624Z,9.80
2017-06-27T19:12:48.148Z,8.90
2017-06-27T19:15:15.668Z,9.70
2017-06-27T19:17:43.303Z,10.20
2017-06-27T19:20:10.929Z,9.40
2017-06-27T19:22:38.916Z,10.07
2017-06-27T19:25:06.455Z,9.33
2017-06-27T19:27:33.994Z,9.87
2017-06-27T19:30:01.530Z,9.83
2017-06-27T19:32:29.064Z,10.50
2017-06-27T19:34:56.923Z,10.63
2017-06-27T19:37:24.481Z,10.33
2017-06-27T19:39:52.011Z,9.70
2017-06-27T19:42:19.636Z,10.40
2017-06-27T19:44:47.208Z,10.40
2017-06-27T19:47:14.755Z,10.63
2017-06-27T19:49:43.086Z,10.83
2017-06-27T19:52:10.626Z,11.60
2017-06-27T19:54:38.173Z,11.27
2017-06-27T19:57:05.721Z,10.80
2017-06-27T19:59:33.286Z,10.80
2017-06-27T20:02:00.802Z,11.00
2017-06-27T20:04:28.382Z,10.87
2017-06-27T20:06:55.956Z,11.73
2017-06-27T20:09:23.543Z,12.60
2017-06-27T20:11:51.102Z,11.10
2017-06-27T20:14:19.081Z,11.17
2017-06-27T20:16:46.615Z,11.27
2017-06-27T20:19:14.144Z,10.20
2017-06-27T20:21:41.699Z,10.97
2017-06-27T20:24:09.336Z,11.47
2017-06-27T20:26:36.913Z,11.27
2017-06-27T20:29:04.480Z,11.10
2017-06-27T20:31:32.038Z,11.03
2017-06-27T20:33:59.588Z,11.60
2017-06-27T20:36:27.164Z,11.10
2017-06-27T20:38:54.712Z,10.73
2017-06-27T20:41:22.234Z,10.10
2017-06-27T20:43:49.788Z,9.27
2017-06-27T20:46:17.309Z,8.70
2017-06-27T20:48:44.949Z,8.90
2017-06-27T20:51:12.475Z,9.67
2017-06-27T20:53:40.460Z,8.30
2017-06-27T20:56:07.980Z,8.37
2017-06-27T20:58:35.485Z,8.47
2017-06-27T21:01:03.023Z,9.40
2017-06-27T21:03:30.553Z,9.50
2017-06-27T21:05:58.543Z,7.57
2017-06-27T21:08:26.089Z,8.70
2017-06-27T21:10:53.626Z,8.87
2017-06-27T21:13:21.930Z,8.60
2017-06-27T21:15:49.440Z,8.43
2017-06-27T21:18:17.021Z,7.83
2017-06-27T21:20:45.322Z,9.50
2017-06-27T21:23:12.831Z,8.20
2017-06-27T21:25:40.363Z,10.30
2017-06-27T21:28:07.901Z,7.93
2017-06-27T21:30:35.438Z,8.97
2017-06-27T21:33:02.957Z,8.67
2017-06-27T21:35:30.506Z,9.20
2017-06-27T21:37:58.448Z,8.27
2017-06-27T21:40:25.956Z,8.30
2017-06-27T21:42:53.764Z,9.97
2017-06-27T21:45:21.299Z,9.30
2017-06-27T21:47:49.571Z,8.50
2017-06-27T21:50:17.098Z,9.50
2017-06-27T21:52:44.615Z,7.77
2017-06-27T21:55:12.598Z,9.40
2017-06-27T21:57:40.119Z,10.03
2017-06-27T22:00:07.643Z,11.40
2017-06-27T22:02:35.188Z,12.00
2017-06-27T22:05:02.725Z,12.70
2017-06-27T22:07:30.264Z,13.13
2017-06-27T22:09:57.804Z,14.40
2017-06-27T22:12:25.332Z,14.60
2017-06-27T22:14:52.847Z,6.83
2017-06-27T22:17:20.434Z,6.60
2017-06-27T22:19:47.953Z,4.77
2017-06-27T22:22:16.232Z,6.40
2017-06-27T22:24:44.532Z,8.30
2017-06-27T22:27:12.053Z,9.23
2017-06-27T22:29:39.573Z,8.70
2017-06-27T22:32:07.243Z,9.30
2017-06-27T22:34:34.853Z,8.57
2017-06-27T22:37:02.405Z,6.83
2017-06-27T22:39:30.685Z,7.73
2017-06-27T22:41:58.562Z,8.47
2017-06-27T22:44:26.072Z,8.50
2017-06-27T22:46:53.875Z,10.87
2017-06-27T22:49:21.428Z,13.20
2017-06-27T22:51:48.929Z,13.90
2017-06-27T22:54:16.455Z,14.00
2017-06-27T22:56:43.986Z,13.70
2017-06-27T22:59:11.790Z,13.13
2017-06-27T23:01:39.317Z,13.13
2017-06-27T23:04:06.855Z,13.67
2017-06-27T23:06:34.386Z,13.63
2017-06-27T23:09:01.894Z,12.37
2017-06-27T23:11:29.425Z,11.80
2017-06-27T23:13:56.963Z,12.20
2017-06-27T23:16:24.483Z,11.80
2017-06-27T23:18:52.001Z,12.40
2017-06-27T23:21:19.496Z,11.70
2017-06-27T23:23:46.999Z,11.90
2017-06-27T23:26:14.526Z,10.40
2017-06-27T23:28:42.058Z,11.80
2017-06-27T23:31:10.353Z,10.70
2017-06-27T23:33:37.894Z,10.90
2017-06-27T23:36:05.404Z,11.20
2017-06-27T23:38:32.934Z,10.20
2017-06-27T23:41:00.447Z,10.27
2017-06-27T23:43:27.979Z,11.10
2017-06-27T23:45:55.488Z,11.40
2017-06-27T23:48:23.785Z,11.53
2017-06-27T23:50:51.301Z,12.77
2017-06-27T23:53:18.832Z,11.70
2017-06-27T23:55:46.333Z,12.57
2017-06-27T23:58:13.865Z,11.30
